Data Viewer
| City | State | Eastern Time | Source | Temp | DewPt | RH | BP | 5 Min Precip | Wind Speed | Wind Dir | 5 Min Wind Max | 5 Min Wind Max Dir |
|---|---|---|---|---|---|---|---|---|---|---|---|---|
| New York JFK | NY | 2026-05-08 16:20 | ASOS | 63 | 34 | 34 | 29.87 | 16 | WNW | |||
| New York JFK | NY | 2026-05-09 04:20 | ASOS | 52 | 46 | 82 | 29.91 | 0 | N | |||
| New York JFK | NY | 2026-05-09 03:25 | ASOS | 54 | 48 | 82 | 29.91 | 7 | SSE | |||
| New York JFK | NY | 2026-05-09 03:30 | ASOS | 54 | 48 | 82 | 29.91 | 7 | SSE | |||
| New York JFK | NY | 2026-05-09 03:35 | ASOS | 54 | 48 | 82 | 29.91 | 5 | SSE | |||
| New York JFK | NY | 2026-05-09 03:40 | ASOS | 54 | 48 | 82 | 29.91 | 3 | SE | |||
| New York JFK | NY | 2026-05-09 03:45 | ASOS | 54 | 48 | 82 | 29.91 | 3 | SE | |||
| New York JFK | NY | 2026-05-09 03:50 | ASOS | 54 | 46 | 77 | 29.91 | 3 | E | |||
| New York JFK | NY | 2026-05-09 03:51 | ASOS | 53 | 47 | 80 | 29.91 | 3 | E | |||
| New York JFK | NY | 2026-05-09 04:00 | ASOS | 52 | 46 | 82 | 29.91 | 3 | E | |||
| New York JFK | NY | 2026-05-09 04:05 | ASOS | 52 | 46 | 82 | 29.91 | 5 | E | |||
| New York JFK | NY | 2026-05-09 04:15 | ASOS | 52 | 46 | 82 | 29.91 | 3 | E | |||
| New York JFK | NY | 2026-05-09 04:25 | ASOS | 52 | 46 | 82 | 29.91 | 3 | E | |||
| New York JFK | NY | 2026-05-09 03:15 | ASOS | 54 | 48 | 82 | 29.91 | 7 | SSE | |||
| New York JFK | NY | 2026-05-09 04:30 | ASOS | 52 | 46 | 82 | 29.91 | 5 | SE | |||
| New York JFK | NY | 2026-05-09 04:35 | ASOS | 52 | 46 | 82 | 29.91 | 5 | SSE | |||
| New York JFK | NY | 2026-05-09 04:40 | ASOS | 52 | 48 | 87 | 29.91 | 5 | SE | |||
| New York JFK | NY | 2026-05-09 04:45 | ASOS | 52 | 48 | 87 | 29.90 | 5 | SE | |||
| New York JFK | NY | 2026-05-09 04:50 | ASOS | 54 | 46 | 77 | 29.90 | 3 | ESE | |||
| New York JFK | NY | 2026-05-09 04:51 | ASOS | 53 | 47 | 80 | 29.90 | 3 | SE | |||
| New York JFK | NY | 2026-05-09 04:55 | ASOS | 54 | 46 | 77 | 29.90 | 3 | SE | |||
| New York JFK | NY | 2026-05-09 05:00 | ASOS | 52 | 46 | 82 | 29.90 | 3 | ESE | |||
| New York JFK | NY | 2026-05-09 05:05 | ASOS | 54 | 46 | 77 | 29.90 | 3 | ESE | |||
| New York JFK | NY | 2026-05-09 05:10 | ASOS | 54 | 46 | 77 | 29.90 | 0 | N | |||
| New York JFK | NY | 2026-05-09 03:20 | ASOS | 54 | 48 | 82 | 29.91 | 6 | SSE | |||
| New York JFK | NY | 2026-05-09 03:10 | ASOS | 54 | 48 | 82 | 29.91 | 6 | SSE | |||
| New York JFK | NY | 2026-05-09 05:20 | ASOS | 54 | 46 | 77 | 29.90 | 3 | SE | |||
| New York JFK | NY | 2026-05-09 02:05 | ASOS | 54 | 48 | 82 | 29.92 | 3 | ESE | |||
| New York JFK | NY | 2026-05-09 01:20 | ASOS | 54 | 48 | 82 | 29.93 | 3 | ESE | |||
| New York JFK | NY | 2026-05-09 01:25 | ASOS | 54 | 48 | 82 | 29.93 | 5 | ESE | |||
| New York JFK | NY | 2026-05-09 01:30 | ASOS | 54 | 48 | 82 | 29.93 | 5 | ESE | |||
| New York JFK | NY | 2026-05-09 01:35 | ASOS | 54 | 48 | 82 | 29.93 | 3 | ESE | |||
| New York JFK | NY | 2026-05-09 01:40 | ASOS | 54 | 48 | 82 | 29.93 | 5 | SE | |||
| New York JFK | NY | 2026-05-09 01:45 | ASOS | 54 | 48 | 82 | 29.93 | 5 | ESE | |||
| New York JFK | NY | 2026-05-09 01:50 | ASOS | 54 | 48 | 82 | 29.92 | 3 | ESE | |||
| New York JFK | NY | 2026-05-09 01:51 | ASOS | 53 | 48 | 83 | 29.93 | 3 | ESE | |||
| New York JFK | NY | 2026-05-09 01:55 | ASOS | 54 | 48 | 82 | 29.93 | 0 | N | |||
| New York JFK | NY | 2026-05-09 02:00 | ASOS | 54 | 48 | 82 | 29.93 | 3 | ENE | |||
| New York JFK | NY | 2026-05-09 02:10 | ASOS | 54 | 48 | 82 | 29.92 | 3 | ESE | |||
| New York JFK | NY | 2026-05-09 03:05 | ASOS | 54 | 48 | 82 | 29.91 | 7 | SSE | |||
| New York JFK | NY | 2026-05-09 02:15 | ASOS | 54 | 48 | 82 | 29.92 | 3 | E | |||
| New York JFK | NY | 2026-05-09 02:20 | ASOS | 52 | 48 | 87 | 29.92 | 5 | ENE | |||
| New York JFK | NY | 2026-05-09 02:25 | ASOS | 52 | 48 | 87 | 29.91 | 5 | ENE | |||
| New York JFK | NY | 2026-05-09 02:30 | ASOS | 54 | 48 | 82 | 29.90 | 6 | E | |||
| New York JFK | NY | 2026-05-09 02:35 | ASOS | 52 | 48 | 87 | 29.90 | 5 | E | |||
| New York JFK | NY | 2026-05-09 02:40 | ASOS | 52 | 48 | 87 | 29.90 | 5 | E | |||
| New York JFK | NY | 2026-05-09 02:45 | ASOS | 52 | 48 | 87 | 29.90 | 3 | E | |||
| New York JFK | NY | 2026-05-09 02:50 | ASOS | 52 | 48 | 87 | 29.90 | 0 | N | |||
| New York JFK | NY | 2026-05-09 02:51 | ASOS | 52 | 48 | 86 | 29.90 | 0 | N | |||
| New York JFK | NY | 2026-05-09 02:55 | ASOS | 54 | 48 | 82 | 29.91 | 3 | SSE | |||
| New York JFK | NY | 2026-05-09 03:00 | ASOS | 52 | 48 | 87 | 29.91 | 5 | SSE | |||
| New York JFK | NY | 2026-05-09 05:15 | ASOS | 52 | 46 | 82 | 29.90 | 0 | N | |||
| New York JFK | NY | 2026-05-09 05:25 | ASOS | 54 | 46 | 77 | 29.90 | 3 | SE | |||
| New York JFK | NY | 2026-05-09 01:10 | ASOS | 52 | 46 | 82 | 29.93 | 5 | ESE | |||
| New York JFK | NY | 2026-05-09 09:25 | ASOS | 57 | 48 | 72 | 29.90 | 0 | N | |||
| New York JFK | NY | 2026-05-09 08:05 | ASOS | 55 | 48 | 77 | 29.92 | 6 | SSE | |||
| New York JFK | NY | 2026-05-09 08:15 | ASOS | 55 | 48 | 77 | 29.92 | 8 | SSE | |||
| New York JFK | NY | 2026-05-09 08:20 | ASOS | 55 | 48 | 77 | 29.92 | 7 | SSE | |||
| New York JFK | NY | 2026-05-09 08:25 | ASOS | 55 | 48 | 77 | 29.92 | 7 | SE | |||
| New York JFK | NY | 2026-05-09 08:40 | ASOS | 55 | 48 | 77 | 29.92 | 5 | SE | |||
| New York JFK | NY | 2026-05-09 08:50 | ASOS | 55 | 48 | 77 | 29.92 | 5 | SE | |||
| New York JFK | NY | 2026-05-09 08:55 | ASOS | 55 | 48 | 77 | 29.92 | 0 | N | |||
| New York JFK | NY | 2026-05-09 09:05 | ASOS | 55 | 48 | 77 | 29.91 | 3 | SSE | |||
| New York JFK | NY | 2026-05-09 09:10 | ASOS | 55 | 48 | 77 | 29.91 | 3 | SE | |||
| New York JFK | NY | 2026-05-09 09:15 | ASOS | 55 | 48 | 77 | 29.91 | 0 | N | |||
| New York JFK | NY | 2026-05-09 09:40 | ASOS | 57 | 48 | 72 | 29.91 | 3 | SSE | |||
| New York JFK | NY | 2026-05-09 07:50 | ASOS | 55 | 48 | 77 | 29.92 | 5 | SSE | |||
| New York JFK | NY | 2026-05-09 09:50 | ASOS | 57 | 48 | 72 | 29.90 | 3 | SSE | |||
| New York JFK | NY | 2026-05-09 09:51 | ASOS | 58 | 48 | 70 | 29.90 | 3 | SSE | |||
| New York JFK | NY | 2026-05-09 10:05 | ASOS | 59 | 46 | 63 | 29.90 | 6 | SSE | |||
| New York JFK | NY | 2026-05-09 10:15 | ASOS | 61 | 48 | 63 | 29.90 | 5 | SSE | |||
| New York JFK | NY | 2026-05-09 10:25 | ASOS | 61 | 48 | 63 | 29.90 | 7 | SE | |||
| New York JFK | NY | 2026-05-09 10:40 | ASOS | 59 | 48 | 67 | 29.90 | 8 | SE | |||
| New York JFK | NY | 2026-05-09 10:50 | ASOS | 59 | 50 | 72 | 29.90 | 7 | SE | |||
| New York JFK | NY | 2026-05-09 10:51 | ASOS | 59 | 50 | 72 | 29.90 | 7 | SE | |||
| New York JFK | NY | 2026-05-09 11:00 | ASOS | 59 | 50 | 72 | 29.90 | 7 | SE | |||
| New York JFK | NY | 2026-05-09 11:05 | ASOS | 59 | 48 | 67 | 29.90 | 7 | SE | |||
| New York JFK | NY | 2026-05-09 11:15 | ASOS | 61 | 52 | 72 | 29.90 | 9 | S | |||
| New York JFK | NY | 2026-05-09 07:51 | ASOS | 55 | 48 | 77 | 29.92 | 6 | SSE | |||
| New York JFK | NY | 2026-05-09 07:40 | ASOS | 55 | 48 | 77 | 29.92 | 7 | SSE | |||
| New York JFK | NY | 2026-05-09 05:30 | ASOS | 54 | 46 | 77 | 29.90 | 3 | SE | |||
| New York JFK | NY | 2026-05-09 06:25 | ASOS | 54 | 46 | 77 | 29.91 | 8 | SSW | |||
| New York JFK | NY | 2026-05-09 05:35 | ASOS | 54 | 46 | 77 | 29.90 | 5 | SSE | |||
| New York JFK | NY | 2026-05-09 05:40 | ASOS | 52 | 46 | 82 | 29.90 | 7 | S | |||
| New York JFK | NY | 2026-05-09 05:45 | ASOS | 54 | 46 | 77 | 29.90 | 10 | S | |||
| New York JFK | NY | 2026-05-09 05:50 | ASOS | 54 | 46 | 77 | 29.90 | 10 | S | |||
| New York JFK | NY | 2026-05-09 05:51 | ASOS | 54 | 46 | 75 | 29.90 | 9 | SSW | |||
| New York JFK | NY | 2026-05-09 06:00 | ASOS | 54 | 46 | 77 | 29.91 | 9 | S | |||
| New York JFK | NY | 2026-05-09 06:05 | ASOS | 54 | 46 | 77 | 29.90 | 8 | S | |||
| New York JFK | NY | 2026-05-09 06:10 | ASOS | 54 | 46 | 77 | 29.90 | 6 | S | |||
| New York JFK | NY | 2026-05-09 06:15 | ASOS | 54 | 46 | 77 | 29.90 | 6 | SSW | |||
| New York JFK | NY | 2026-05-09 06:20 | ASOS | 54 | 46 | 77 | 29.90 | 7 | S | |||
| New York JFK | NY | 2026-05-09 06:30 | ASOS | 54 | 46 | 77 | 29.91 | 7 | SSW | |||
| New York JFK | NY | 2026-05-09 07:35 | ASOS | 55 | 48 | 77 | 29.92 | 7 | S | |||
| New York JFK | NY | 2026-05-09 06:35 | ASOS | 54 | 46 | 77 | 29.91 | 9 | S | |||
| New York JFK | NY | 2026-05-09 06:40 | ASOS | 54 | 46 | 77 | 29.91 | 9 | SSW | |||
| New York JFK | NY | 2026-05-09 06:45 | ASOS | 55 | 46 | 72 | 29.91 | 9 | S | |||
| New York JFK | NY | 2026-05-09 06:50 | ASOS | 55 | 46 | 72 | 29.91 | 13 | S | |||
| New York JFK | NY | 2026-05-09 07:00 | ASOS | 55 | 46 | 72 | 29.92 | 12 | S | |||
| New York JFK | NY | 2026-05-09 07:05 | ASOS | 55 | 46 | 72 | 29.92 | 13 | S | |||
| New York JFK | NY | 2026-05-09 07:10 | ASOS | 55 | 46 | 72 | 29.92 | 14 | S | |||
| New York JFK | NY | 2026-05-09 07:15 | ASOS | 55 | 46 | 72 | 29.92 | 10 | S | |||
| New York JFK | NY | 2026-05-09 07:20 | ASOS | 55 | 46 | 72 | 29.92 | 12 | S | |||
| New York JFK | NY | 2026-05-09 07:25 | ASOS | 55 | 46 | 72 | 29.92 | 8 | SSE | |||
| New York JFK | NY | 2026-05-09 07:30 | ASOS | 55 | 48 | 77 | 29.92 | 7 | SSE | |||
| New York JFK | NY | 2026-05-09 01:15 | ASOS | 54 | 48 | 82 | 29.93 | 3 | E | |||
| New York JFK | NY | 2026-05-09 01:05 | ASOS | 52 | 46 | 82 | 29.93 | 0 | N | |||
| New York JFK | NY | 2026-05-08 16:25 | ASOS | 61 | 35 | 39 | 29.87 | 12 | WNW | |||
| New York JFK | NY | 2026-05-08 19:20 | ASOS | 59 | 39 | 48 | 29.88 | 6 | ESE | |||
| New York JFK | NY | 2026-05-08 18:35 | ASOS | 61 | 37 | 42 | 29.87 | 7 | N | |||
| New York JFK | NY | 2026-05-08 18:40 | ASOS | 61 | 37 | 42 | 29.87 | 8 | N | |||
| New York JFK | NY | 2026-05-08 18:45 | ASOS | 61 | 37 | 42 | 29.87 | 8 | NNE | |||
| New York JFK | NY | 2026-05-08 18:50 | ASOS | 61 | 37 | 42 | 29.87 | 7 | NNE | |||
| New York JFK | NY | 2026-05-08 18:51 | ASOS | 60 | 38 | 44 | 29.87 | 7 | NNE | |||
| New York JFK | NY | 2026-05-08 18:55 | ASOS | 61 | 37 | 42 | 29.87 | 8 | N | |||
| New York JFK | NY | 2026-05-08 19:00 | ASOS | 61 | 39 | 45 | 29.87 | 6 | N | |||
| New York JFK | NY | 2026-05-08 19:05 | ASOS | 61 | 39 | 45 | 29.87 | 6 | NNE | |||
| New York JFK | NY | 2026-05-08 19:10 | ASOS | 61 | 37 | 42 | 29.87 | 5 | NNE | |||
| New York JFK | NY | 2026-05-08 19:15 | ASOS | 61 | 37 | 42 | 29.87 | 5 | NNE | |||
| New York JFK | NY | 2026-05-08 19:25 | ASOS | 57 | 43 | 59 | 29.88 | 5 | E | |||
| New York JFK | NY | 2026-05-08 18:25 | ASOS | 63 | 37 | 39 | 29.87 | 7 | N | |||
| New York JFK | NY | 2026-05-08 19:30 | ASOS | 57 | 43 | 59 | 29.88 | 7 | E | |||
| New York JFK | NY | 2026-05-08 19:35 | ASOS | 57 | 43 | 59 | 29.88 | 7 | E | |||
| New York JFK | NY | 2026-05-08 19:40 | ASOS | 55 | 43 | 62 | 29.88 | 6 | E | |||
| New York JFK | NY | 2026-05-08 19:45 | ASOS | 55 | 43 | 62 | 29.88 | 6 | ESE | |||
| New York JFK | NY | 2026-05-08 19:50 | ASOS | 55 | 43 | 62 | 29.89 | 8 | SE | |||
| New York JFK | NY | 2026-05-08 19:51 | ASOS | 56 | 44 | 64 | 29.89 | 7 | SE | |||
| New York JFK | NY | 2026-05-08 20:00 | ASOS | 55 | 44 | 67 | 29.89 | 9 | ESE | |||
| New York JFK | NY | 2026-05-08 20:05 | ASOS | 55 | 44 | 67 | 29.89 | 7 | ESE | |||
| New York JFK | NY | 2026-05-08 20:15 | ASOS | 54 | 45 | 71 | 29.89 | 8 | SE | |||
| New York JFK | NY | 2026-05-08 20:20 | ASOS | 54 | 45 | 71 | 29.89 | 7 | SE | |||
| New York JFK | NY | 2026-05-08 20:25 | ASOS | 54 | 45 | 71 | 29.89 | 8 | SE | |||
| New York JFK | NY | 2026-05-08 18:30 | ASOS | 61 | 37 | 42 | 29.87 | 7 | N | |||
| New York JFK | NY | 2026-05-08 18:20 | ASOS | 61 | 37 | 42 | 29.87 | 5 | NNE | |||
| New York JFK | NY | 2026-05-08 20:35 | ASOS | 54 | 45 | 71 | 29.89 | 6 | SE | |||
| New York JFK | NY | 2026-05-08 17:15 | ASOS | 61 | 35 | 39 | 29.87 | 8 | NNW | |||
| New York JFK | NY | 2026-05-08 16:30 | ASOS | 61 | 34 | 36 | 29.87 | 16 | NW | |||
| New York JFK | NY | 2026-05-08 16:35 | ASOS | 61 | 35 | 39 | 29.87 | 12 | NNW | |||
| New York JFK | NY | 2026-05-08 16:40 | ASOS | 61 | 37 | 42 | 29.87 | 18 | NNW | |||
| New York JFK | NY | 2026-05-08 16:45 | ASOS | 61 | 37 | 42 | 29.88 | 12 | NNW | |||
| New York JFK | NY | 2026-05-08 16:50 | ASOS | 61 | 37 | 42 | 29.88 | 13 | NNW | |||
| New York JFK | NY | 2026-05-08 16:51 | ASOS | 61 | 38 | 42 | 29.87 | 13 | NNW | |||
| New York JFK | NY | 2026-05-08 16:55 | ASOS | 61 | 37 | 42 | 29.87 | 13 | NNW | |||
| New York JFK | NY | 2026-05-08 17:00 | ASOS | 63 | 37 | 39 | 29.87 | 8 | NNW | |||
| New York JFK | NY | 2026-05-08 17:05 | ASOS | 61 | 37 | 42 | 29.87 | 10 | N | |||
| New York JFK | NY | 2026-05-08 17:10 | ASOS | 61 | 37 | 42 | 29.87 | 9 | N | |||
| New York JFK | NY | 2026-05-08 17:20 | ASOS | 61 | 35 | 39 | 29.87 | 9 | NNW | |||
| New York JFK | NY | 2026-05-08 18:15 | ASOS | 61 | 37 | 42 | 29.87 | 7 | N | |||
| New York JFK | NY | 2026-05-08 17:25 | ASOS | 61 | 35 | 39 | 29.87 | 10 | NW | |||
| New York JFK | NY | 2026-05-08 17:30 | ASOS | 61 | 35 | 39 | 29.87 | 7 | WNW | |||
| New York JFK | NY | 2026-05-08 17:35 | ASOS | 63 | 37 | 39 | 29.87 | 8 | NW | |||
| New York JFK | NY | 2026-05-08 17:40 | ASOS | 63 | 37 | 39 | 29.87 | 6 | NNW | |||
| New York JFK | NY | 2026-05-08 17:45 | ASOS | 61 | 35 | 39 | 29.87 | 10 | NNW | |||
| New York JFK | NY | 2026-05-08 17:50 | ASOS | 61 | 37 | 42 | 29.87 | 10 | N | |||
| New York JFK | NY | 2026-05-08 17:51 | ASOS | 61 | 37 | 41 | 29.87 | 9 | N | |||
| New York JFK | NY | 2026-05-08 17:55 | ASOS | 63 | 37 | 39 | 29.87 | 9 | N | |||
| New York JFK | NY | 2026-05-08 18:00 | ASOS | 63 | 37 | 39 | 29.87 | 7 | N | |||
| New York JFK | NY | 2026-05-08 18:05 | ASOS | 63 | 37 | 39 | 29.87 | 9 | NNE | |||
| New York JFK | NY | 2026-05-08 18:10 | ASOS | 63 | 37 | 39 | 29.87 | 7 | NNE | |||
| New York JFK | NY | 2026-05-08 20:30 | ASOS | 54 | 45 | 71 | 29.89 | 7 | SE | |||
| New York JFK | NY | 2026-05-08 20:40 | ASOS | 54 | 45 | 71 | 29.89 | 6 | SE | |||
| New York JFK | NY | 2026-05-09 00:55 | ASOS | 52 | 46 | 82 | 29.92 | 3 | ESE | |||
| New York JFK | NY | 2026-05-08 23:51 | ASOS | 51 | 44 | 77 | 29.92 | 6 | E | |||
| New York JFK | NY | 2026-05-08 23:00 | ASOS | 54 | 45 | 71 | 29.93 | 0 | N | |||
| New York JFK | NY | 2026-05-08 23:05 | ASOS | 54 | 45 | 71 | 29.93 | 3 | ENE | |||
| New York JFK | NY | 2026-05-08 23:10 | ASOS | 54 | 46 | 77 | 29.93 | 5 | ENE | |||
| New York JFK | NY | 2026-05-08 23:15 | ASOS | 54 | 46 | 77 | 29.93 | 5 | ENE | |||
| New York JFK | NY | 2026-05-08 23:20 | ASOS | 54 | 45 | 71 | 29.93 | 6 | ENE | |||
| New York JFK | NY | 2026-05-08 23:25 | ASOS | 54 | 45 | 71 | 29.93 | 5 | NE | |||
| New York JFK | NY | 2026-05-08 23:30 | ASOS | 54 | 45 | 71 | 29.92 | 5 | NE | |||
| New York JFK | NY | 2026-05-08 23:35 | ASOS | 54 | 45 | 71 | 29.93 | 3 | NE | |||
| New York JFK | NY | 2026-05-08 23:40 | ASOS | 54 | 45 | 71 | 29.92 | 5 | NNE | |||
| New York JFK | NY | 2026-05-08 23:45 | ASOS | 54 | 45 | 71 | 29.92 | 6 | NNE | |||
| New York JFK | NY | 2026-05-09 00:00 | ASOS | 52 | 45 | 76 | 29.92 | 5 | ENE | |||
| New York JFK | NY | 2026-05-08 22:51 | ASOS | 54 | 45 | 72 | 29.93 | 0 | N | |||
| New York JFK | NY | 2026-05-09 00:05 | ASOS | 52 | 45 | 76 | 29.92 | 5 | ENE | |||
| New York JFK | NY | 2026-05-09 00:10 | ASOS | 52 | 45 | 76 | 29.92 | 3 | ENE | |||
| New York JFK | NY | 2026-05-09 00:15 | ASOS | 52 | 46 | 82 | 29.92 | 5 | ENE | |||
| New York JFK | NY | 2026-05-09 00:20 | ASOS | 52 | 45 | 76 | 29.92 | 5 | ENE | |||
| New York JFK | NY | 2026-05-09 00:25 | ASOS | 52 | 46 | 82 | 29.92 | 3 | E | |||
| New York JFK | NY | 2026-05-09 00:30 | ASOS | 52 | 45 | 76 | 29.92 | 3 | ESE | |||
| New York JFK | NY | 2026-05-09 00:35 | ASOS | 52 | 45 | 76 | 29.92 | 5 | ESE | |||
| New York JFK | NY | 2026-05-09 00:40 | ASOS | 52 | 45 | 76 | 29.92 | 3 | ESE | |||
| New York JFK | NY | 2026-05-09 00:45 | ASOS | 52 | 46 | 82 | 29.92 | 5 | ESE | |||
| New York JFK | NY | 2026-05-09 00:50 | ASOS | 52 | 46 | 82 | 29.92 | 5 | SE | |||
| New York JFK | NY | 2026-05-09 00:51 | ASOS | 52 | 46 | 80 | 29.92 | 5 | SE | |||
| New York JFK | NY | 2026-05-08 22:55 | ASOS | 54 | 45 | 71 | 29.93 | 0 | N | |||
| New York JFK | NY | 2026-05-08 22:50 | ASOS | 54 | 45 | 71 | 29.93 | 0 | N | |||
| New York JFK | NY | 2026-05-08 20:45 | ASOS | 54 | 45 | 71 | 29.90 | 6 | SE | |||
| New York JFK | NY | 2026-05-08 21:40 | ASOS | 54 | 45 | 71 | 29.92 | 6 | SE | |||
| New York JFK | NY | 2026-05-08 20:50 | ASOS | 54 | 45 | 71 | 29.90 | 6 | SSE | |||
| New York JFK | NY | 2026-05-08 20:51 | ASOS | 54 | 45 | 72 | 29.90 | 6 | SSE | |||
| New York JFK | NY | 2026-05-08 20:55 | ASOS | 54 | 45 | 71 | 29.91 | 5 | SSE | |||
| New York JFK | NY | 2026-05-08 21:00 | ASOS | 54 | 45 | 71 | 29.90 | 6 | SE | |||
| New York JFK | NY | 2026-05-08 21:05 | ASOS | 54 | 45 | 71 | 29.91 | 8 | SSE | |||
| New York JFK | NY | 2026-05-08 21:10 | ASOS | 54 | 45 | 71 | 29.91 | 8 | SSE | |||
| New York JFK | NY | 2026-05-08 21:15 | ASOS | 54 | 45 | 71 | 29.92 | 6 | SE | |||
| New York JFK | NY | 2026-05-08 21:20 | ASOS | 54 | 45 | 71 | 29.92 | 3 | SE | |||
| New York JFK | NY | 2026-05-08 21:25 | ASOS | 54 | 45 | 71 | 29.92 | 3 | SE | |||
| New York JFK | NY | 2026-05-08 21:35 | ASOS | 54 | 45 | 71 | 29.92 | 5 | SE | |||
| New York JFK | NY | 2026-05-08 21:45 | ASOS | 54 | 45 | 71 | 29.92 | 5 | SE | |||
| New York JFK | NY | 2026-05-08 22:45 | ASOS | 54 | 45 | 71 | 29.93 | 0 | N | |||
| New York JFK | NY | 2026-05-08 21:50 | ASOS | 54 | 45 | 71 | 29.93 | 6 | SE | |||
| New York JFK | NY | 2026-05-08 21:51 | ASOS | 54 | 45 | 72 | 29.93 | 6 | SE | |||
| New York JFK | NY | 2026-05-08 22:00 | ASOS | 54 | 46 | 77 | 29.93 | 5 | SE | |||
| New York JFK | NY | 2026-05-08 22:05 | ASOS | 54 | 46 | 77 | 29.93 | 3 | SSE | |||
| New York JFK | NY | 2026-05-08 22:10 | ASOS | 54 | 46 | 77 | 29.93 | 3 | SSE | |||
| New York JFK | NY | 2026-05-08 22:15 | ASOS | 54 | 45 | 71 | 29.93 | 3 | ESE | |||
| New York JFK | NY | 2026-05-08 22:20 | ASOS | 54 | 46 | 77 | 29.93 | 0 | N | |||
| New York JFK | NY | 2026-05-08 22:25 | ASOS | 54 | 45 | 71 | 29.93 | 0 | N | |||
| New York JFK | NY | 2026-05-08 22:30 | ASOS | 54 | 45 | 71 | 29.93 | 0 | N | |||
| New York JFK | NY | 2026-05-08 22:35 | ASOS | 54 | 45 | 71 | 29.93 | 3 | E | |||
| New York JFK | NY | 2026-05-08 22:40 | ASOS | 54 | 45 | 71 | 29.93 | 0 | N | |||
| New York JFK | NY | 2026-05-09 14:50 | ASOS | 55 | 54 | 94 | 29.88 | 12 | SSW |
data collection created in 0.031743049621582 (queried in 0.007134) rendered in: 0.00032711029052734

